Time;durP1;ratioP1;P1;durP2;ratioP2;P2;SDS_P1;SDS_P2;PMS_P1;PMS_P2;Temp;Humidity;BMP_temperature;BMP_pressure;BME280_temperature;BME280_humidity;BME280_pressure;Samples;Min_cycle;Max_cycle;Signal;HPM_P1;HPM_P2
2023/08/12 00:01:31;;;;;;;15.47;7.10;;;21.50;98.50;;;21.56;66.98;101066.03;5053657;28;20191;-72
2023/08/12 00:04:05;;;;;;;17.00;6.50;;;21.50;98.40;;;21.53;66.68;101067.31;5052971;28;20222;-73
2023/08/12 00:06:37;;;;;;;17.20;6.77;;;21.40;98.30;;;21.46;67.21;101065.72;5053591;28;20191;-73
2023/08/12 00:09:10;;;;;;;15.47;6.17;;;21.30;98.70;;;21.47;66.81;101067.38;5053573;28;20191;-73
2023/08/12 00:11:41;;;;;;;11.40;5.47;;;21.30;98.60;;;21.40;67.11;101064.72;5053766;28;20273;-73
2023/08/12 00:14:14;;;;;;;8.57;5.53;;;21.30;98.60;;;21.37;67.20;101070.59;5053051;28;20639;-73
2023/08/12 00:16:46;;;;;;;13.77;5.30;;;21.20;98.80;;;21.33;67.17;101063.94;5053443;28;20285;-72
2023/08/12 00:19:19;;;;;;;12.07;5.87;;;21.30;98.70;;;21.28;67.20;101052.88;5053493;28;20273;-72
2023/08/12 00:21:52;;;;;;;11.93;5.40;;;21.20;98.80;;;21.24;67.08;101062.53;5053433;28;20281;-72
2023/08/12 00:24:24;;;;;;;15.00;5.77;;;21.20;98.70;;;21.17;67.93;101059.03;5053515;28;20237;-72
2023/08/12 00:26:56;;;;;;;14.90;5.40;;;21.10;99.00;;;21.10;68.12;101055.53;5053348;28;20191;-72
2023/08/12 00:29:28;;;;;;;15.27;5.03;;;21.10;99.10;;;21.09;67.92;101056.56;5053096;28;20687;-72
2023/08/12 00:32:00;;;;;;;12.47;5.10;;;21.00;99.30;;;21.10;68.16;101047.34;5053935;28;20572;-72
2023/08/12 00:34:33;;;;;;;11.47;4.77;;;21.10;99.30;;;21.11;68.46;101047.16;5053230;28;20245;-72
2023/08/12 00:37:05;;;;;;;16.47;5.77;;;21.10;99.30;;;21.14;68.32;101045.88;5053296;28;20190;-72
2023/08/12 00:39:37;;;;;;;14.03;5.63;;;21.10;99.40;;;21.13;67.60;101050.47;5052958;28;20663;-72
2023/08/12 00:42:09;;;;;;;11.63;5.20;;;21.10;99.20;;;21.14;68.42;101046.72;5053155;28;20190;-72
2023/08/12 00:44:41;;;;;;;12.93;5.47;;;21.10;99.30;;;21.07;69.24;101054.06;5053245;28;20182;-72
2023/08/12 00:47:12;;;;;;;14.03;6.17;;;21.00;99.70;;;20.95;69.02;101055.00;5052905;28;20309;-72
2023/08/12 00:49:47;;;;;;;12.40;6.30;;;20.90;99.80;;;20.90;68.46;101047.47;5053198;28;20222;-72
2023/08/12 00:52:20;;;;;;;14.70;5.80;;;20.80;99.80;;;20.85;69.15;101043.78;5053075;28;20241;-72
2023/08/12 00:54:53;;;;;;;22.00;5.77;;;20.70;99.90;;;20.83;68.88;101043.13;5053039;28;20221;-72
2023/08/12 00:57:25;;;;;;;10.13;4.57;;;20.80;99.90;;;20.86;69.17;101042.69;5052803;28;20195;-72
2023/08/12 00:59:59;;;;;;;10.87;5.13;;;20.80;99.90;;;20.82;69.37;101033.31;5053080;28;20221;-72
2023/08/12 01:02:32;;;;;;;12.43;5.40;;;20.80;99.90;;;20.78;69.74;101032.09;5052705;28;20645;-72
2023/08/12 01:05:05;;;;;;;16.20;4.90;;;20.80;99.90;;;20.78;69.60;101026.66;5052747;28;20230;-72
2023/08/12 01:07:37;;;;;;;16.17;5.30;;;20.70;99.90;;;20.70;69.83;101025.84;5053028;28;20241;-72
2023/08/12 01:10:14;;;;;;;9.93;4.80;;;20.70;99.90;;;20.72;69.00;101029.19;5052641;28;20186;-72
2023/08/12 01:12:54;;;;;;;12.07;4.90;;;20.70;99.90;;;20.69;69.50;101020.63;5052554;28;20697;-72
2023/08/12 01:19:37;;;;;;;5.63;4.13;;;20.60;99.90;;;20.63;69.98;101008.75;5056452;28;20572;-72
2023/08/12 01:22:14;;;;;;;12.47;4.83;;;20.60;99.90;;;20.62;69.56;101003.50;5056264;28;20559;-72
2023/08/12 01:24:47;;;;;;;6.40;4.20;;;20.60;99.90;;;20.60;69.98;101005.63;5056477;28;20682;-72
2023/08/12 01:27:20;;;;;;;6.17;4.10;;;20.60;99.90;;;20.60;69.86;100995.59;5056465;28;20567;-72
2023/08/12 01:29:54;;;;;;;13.20;4.17;;;20.60;99.90;;;20.55;70.32;101000.84;5056494;28;20229;-72
2023/08/12 01:32:41;;;;;;;11.27;4.00;;;20.50;99.90;;;20.56;70.29;101005.22;5056336;28;20234;-72
2023/08/12 01:35:21;;;;;;;10.87;4.20;;;20.50;99.90;;;20.53;70.20;100994.78;5055957;28;20586;-72
2023/08/12 01:37:56;;;;;;;12.43;4.60;;;20.60;99.90;;;20.48;70.51;100997.31;5056299;28;20273;-72
2023/08/12 01:40:32;;;;;;;8.80;4.30;;;20.40;99.90;;;20.47;69.92;100994.84;5055957;28;20225;-72
2023/08/12 01:43:05;;;;;;;5.00;3.90;;;20.50;99.90;;;20.49;70.03;100993.56;5056129;28;20236;-72
2023/08/12 01:45:37;;;;;;;9.47;4.20;;;20.50;99.90;;;20.52;70.06;100989.56;5056166;28;20194;-72
2023/08/12 01:48:08;;;;;;;8.80;4.47;;;20.50;99.90;;;20.50;70.24;100984.34;5056013;28;20210;-72
2023/08/12 01:50:46;;;;;;;9.03;4.37;;;20.50;99.90;;;20.51;69.75;100979.75;5055712;28;20640;-72
2023/08/12 01:53:18;;;;;;;10.67;4.30;;;20.50;99.90;;;20.49;70.02;100974.53;5055947;28;20226;-72
2023/08/12 01:55:54;;;;;;;9.67;4.00;;;20.50;99.90;;;20.50;70.06;100978.91;5055557;28;20297;-72
2023/08/12 01:58:26;;;;;;;6.63;4.50;;;20.50;99.90;;;20.51;70.24;100968.88;5056303;28;20186;-72
2023/08/12 02:00:58;;;;;;;7.40;4.50;;;20.50;99.90;;;20.50;70.33;100973.47;5055886;28;20190;-72
2023/08/12 02:03:30;;;;;;;10.57;4.40;;;20.60;99.90;;;20.55;70.30;100970.06;5055344;28;20673;-72
2023/08/12 02:06:02;;;;;;;8.67;4.27;;;20.60;99.90;;;20.55;70.59;100970.06;5055817;28;20198;-72
2023/08/12 02:08:34;;;;;;;7.47;4.07;;;20.60;99.90;;;20.53;70.50;100962.16;5055718;28;20222;-72
2023/08/12 02:11:07;;;;;;;9.50;3.93;;;20.60;99.90;;;20.50;70.64;100965.31;5055628;28;20574;-72
2023/08/12 02:13:39;;;;;;;8.83;4.13;;;20.60;99.90;;;20.48;71.22;100964.69;5055536;28;20222;-72
2023/08/12 02:16:11;;;;;;;7.87;4.03;;;20.50;99.90;;;20.46;71.04;100961.38;5056421;28;20657;-72
2023/08/12 02:18:43;;;;;;;9.87;4.50;;;20.50;99.90;;;20.45;71.04;100961.56;5055551;28;20195;-73
2023/08/12 02:21:15;;;;;;;6.40;3.87;;;20.50;99.90;;;20.44;70.65;100958.03;5055168;28;20186;-73
2023/08/12 02:23:47;;;;;;;8.53;4.20;;;20.50;99.90;;;20.46;70.08;100955.91;5055616;28;20232;-73
2023/08/12 02:26:20;;;;;;;8.27;4.27;;;20.50;99.90;;;20.46;69.94;100953.19;5054969;28;20191;-73
2023/08/12 02:28:52;;;;;;;9.47;4.53;;;20.60;99.90;;;20.48;70.61;100950.28;5055033;28;20226;-73
2023/08/12 02:31:24;;;;;;;8.40;4.13;;;20.50;99.90;;;20.46;70.71;100953.19;5054954;28;20186;-73
2023/08/12 02:33:56;;;;;;;7.10;4.40;;;20.50;99.90;;;20.46;70.64;100955.09;5055203;28;20229;-73
2023/08/12 02:36:28;;;;;;;7.40;4.23;;;20.60;99.90;;;20.47;70.97;100951.31;5054861;28;20766;-72
2023/08/12 02:39:00;;;;;;;7.77;4.57;;;20.60;99.90;;;20.47;70.54;100941.28;5054889;28;20640;-72
2023/08/12 02:41:34;;;;;;;9.07;5.23;;;20.60;99.90;;;20.45;71.68;100943.38;5054892;28;20194;-72
2023/08/12 02:44:08;;;;;;;12.63;5.90;;;20.50;99.90;;;20.43;71.53;100945.50;5054692;28;20230;-72
2023/08/12 02:46:40;;;;;;;14.87;5.60;;;20.60;99.90;;;20.41;71.65;100936.69;5054928;28;20248;-72
2023/08/12 02:49:12;;;;;;;9.43;5.30;;;20.50;99.90;;;20.41;71.48;100933.16;5054966;28;20281;-73
2023/08/12 02:51:44;;;;;;;12.43;6.70;;;20.50;99.90;;;20.36;72.11;100932.97;5054876;28;20212;-73
2023/08/12 02:54:16;;;;;;;16.07;8.80;;;20.40;99.90;;;20.37;72.78;100935.50;5054960;28;20230;-73
2023/08/12 02:56:50;;;;;;;19.83;10.87;;;20.40;99.90;;;20.37;72.36;100957.25;5054692;28;20636;-73
2023/08/12 02:59:24;;;;;;;11.43;7.27;;;20.50;99.90;;;20.34;72.77;100963.13;5054623;28;20572;-73
2023/08/12 03:01:56;;;;;;;10.53;5.70;;;20.50;99.90;;;20.34;72.38;100963.13;5054443;28;20638;-73
2023/08/12 03:04:29;;;;;;;5.53;4.93;;;20.40;99.90;;;20.31;71.79;100958.09;5054639;28;20229;-73
2023/08/12 03:07:02;;;;;;;8.47;4.83;;;20.40;99.90;;;20.34;71.63;100957.69;5054370;28;20187;-73
2023/08/12 03:09:34;;;;;;;6.83;4.40;;;20.50;99.90;;;20.32;71.44;100950.78;5054598;28;20269;-73
2023/08/12 03:12:09;;;;;;;8.13;4.60;;;20.50;99.90;;;20.29;72.25;100945.78;5054505;28;20662;-72
2023/08/12 03:14:41;;;;;;;5.03;4.17;;;20.40;99.90;;;20.30;72.31;100953.75;5054421;28;20186;-73
2023/08/12 03:17:13;;;;;;;6.70;4.73;;;20.40;99.90;;;20.28;71.64;100958.53;5054524;28;20218;-72
2023/08/12 03:19:46;;;;;;;5.07;4.13;;;20.40;99.90;;;20.28;71.80;100957.69;5054785;28;20210;-72
2023/08/12 03:22:18;;;;;;;5.67;4.03;;;20.40;99.90;;;20.28;72.03;100966.69;5054291;28;20634;-73
2023/08/12 03:24:50;;;;;;;6.63;4.10;;;20.40;99.90;;;20.27;72.51;100965.06;5054280;28;20274;-72
2023/08/12 03:27:23;;;;;;;7.37;4.13;;;20.40;99.90;;;20.26;72.88;100963.34;5053921;28;20719;-72
2023/08/12 03:29:55;;;;;;;7.60;4.10;;;20.40;99.90;;;20.25;73.14;100964.38;5053914;28;20619;-72
2023/08/12 03:32:27;;;;;;;4.77;3.90;;;20.40;99.90;;;20.26;72.94;100968.78;5053789;28;20222;-72
2023/08/12 03:35:01;;;;;;;6.07;4.07;;;20.40;99.90;;;20.23;72.96;100975.50;5053729;28;20606;-72
2023/08/12 03:37:33;;;;;;;6.57;4.40;;;20.40;99.90;;;20.20;73.03;100980.53;5053759;28;20209;-72
2023/08/12 03:40:05;;;;;;;6.33;4.40;;;20.40;99.90;;;20.19;71.97;100976.13;5054030;28;20322;-72
2023/08/12 03:42:38;;;;;;;10.57;4.67;;;20.30;99.90;;;20.18;73.02;100977.19;5053939;28;20304;-73
2023/08/12 03:45:13;;;;;;;7.80;3.90;;;20.30;99.90;;;20.18;72.97;100969.88;5053978;28;20281;-73
2023/08/12 03:47:45;;;;;;;7.47;3.93;;;20.30;99.90;;;20.13;74.05;100966.13;5053519;28;20646;-72
2023/08/12 03:50:17;;;;;;;7.03;4.00;;;20.30;99.90;;;20.11;73.80;100973.66;5053865;28;20186;-72
2023/08/12 03:52:49;;;;;;;6.67;4.07;;;20.20;99.90;;;20.08;74.06;100963.22;5053677;28;20230;-72
2023/08/12 03:55:21;;;;;;;5.60;4.07;;;20.20;99.90;;;20.11;74.08;100968.22;5053726;28;20304;-71
2023/08/12 03:57:54;;;;;;;7.80;4.40;;;20.20;99.90;;;20.10;73.99;100953.00;5053410;28;20644;-72
2023/08/12 04:00:26;;;;;;;9.10;4.10;;;20.20;99.90;;;20.10;74.05;100966.56;5053381;28;20656;-72
2023/08/12 04:02:58;;;;;;;6.73;4.63;;;20.20;99.90;;;19.99;74.50;100978.13;5053548;28;20280;-72
2023/08/12 04:05:30;;;;;;;8.87;4.53;;;20.10;99.90;;;19.80;74.72;100988.00;5053641;28;20277;-72
2023/08/12 04:08:02;;;;;;;10.50;4.60;;;20.00;99.90;;;19.80;75.20;100979.03;5053556;28;20226;-72
2023/08/12 04:10:35;;;;;;;7.93;4.60;;;20.00;99.90;;;19.87;74.73;100960.81;5053547;28;20221;-72
2023/08/12 04:13:08;;;;;;;11.03;4.70;;;20.10;99.90;;;19.93;74.81;100960.78;5053417;28;20253;-73
2023/08/12 04:15:40;;;;;;;8.10;4.50;;;20.20;99.90;;;19.96;74.74;100962.25;5053096;28;20623;-72
2023/08/12 04:18:12;;;;;;;7.90;4.47;;;20.20;99.90;;;19.96;75.35;100956.81;5053471;28;20226;-73
2023/08/12 04:20:45;;;;;;;9.37;5.33;;;20.20;99.90;;;19.95;75.17;100958.69;5053464;28;20277;-73
2023/08/12 04:23:18;;;;;;;8.63;4.70;;;20.20;99.90;;;19.88;75.11;100962.47;5053332;28;20320;-73
2023/08/12 04:25:53;;;;;;;6.37;4.57;;;20.10;99.90;;;19.88;75.05;100967.91;5053080;28;20208;-73
2023/08/12 04:28:27;;;;;;;8.33;4.67;;;20.10;99.90;;;19.90;74.77;100966.66;5053364;28;20281;-72
2023/08/12 04:30:59;;;;;;;8.97;4.87;;;20.10;99.90;;;19.87;75.01;100972.50;5053634;28;20201;-72
2023/08/12 04:33:31;;;;;;;7.00;4.53;;;20.10;99.90;;;19.86;75.28;100965.44;5053477;28;20253;-72
2023/08/12 04:36:03;;;;;;;6.60;4.70;;;20.20;99.90;;;19.86;75.40;100980.91;5052873;28;20608;-71
2023/08/12 04:38:35;;;;;;;7.77;5.00;;;20.10;99.90;;;19.89;75.68;100985.91;5053242;28;20194;-72
2023/08/12 04:41:07;;;;;;;9.47;5.23;;;20.10;99.90;;;19.85;76.27;100979.22;5053257;28;20273;-72
2023/08/12 04:43:40;;;;;;;10.20;5.10;;;20.20;99.90;;;19.83;77.49;100986.78;5053159;28;20226;-72
2023/08/12 04:46:12;;;;;;;9.77;5.00;;;20.20;99.90;;;19.87;77.90;100979.81;5053042;28;20245;-72
2023/08/12 04:48:45;;;;;;;7.47;4.97;;;20.10;99.90;;;19.86;78.23;100970.03;5053482;28;20191;-72
2023/08/12 04:51:17;;;;;;;6.87;4.60;;;20.10;99.90;;;19.88;78.20;100968.75;5055817;28;20190;-72
2023/08/12 04:53:49;;;;;;;8.37;5.70;;;20.10;99.90;;;19.88;79.23;100966.03;5057054;28;20778;-72
2023/08/12 04:56:21;;;;;;;9.07;6.07;;;20.20;99.90;;;19.87;80.29;100967.09;5057113;28;20300;-72
2023/08/12 04:58:54;;;;;;;12.27;6.80;;;20.10;99.90;;;19.88;80.16;100968.75;5057055;28;20277;-73
2023/08/12 05:01:26;;;;;;;11.77;6.30;;;20.10;99.90;;;19.82;81.36;100971.50;5056753;28;20626;-73
2023/08/12 05:03:58;;;;;;;11.13;6.40;;;20.10;99.90;;;19.85;82.78;100976.50;5056913;28;20275;-73
2023/08/12 05:06:30;;;;;;;11.47;6.87;;;20.10;99.90;;;19.83;82.10;100986.78;5057041;28;20229;-74
2023/08/12 05:09:03;;;;;;;11.03;6.03;;;20.10;99.90;;;19.82;82.60;100993.25;5056833;28;20226;-74
2023/08/12 05:11:35;;;;;;;9.77;7.17;;;20.10;99.90;;;19.78;82.52;100983.84;5056783;28;20194;-71
2023/08/12 05:14:09;;;;;;;8.83;7.33;;;20.00;99.90;;;19.76;83.11;100985.97;5056634;28;20303;-72
2023/08/12 05:16:40;;;;;;;9.63;6.80;;;20.00;99.90;;;19.78;83.94;100990.13;5056648;28;20301;-73
2023/08/12 05:19:12;;;;;;;9.87;7.53;;;20.00;99.90;;;19.74;84.52;100994.31;5056744;28;20190;-73
2023/08/12 05:21:45;;;;;;;11.00;8.10;;;20.00;99.90;;;19.70;84.48;101003.94;5056686;28;20256;-72
2023/08/12 05:24:17;;;;;;;9.57;8.03;;;20.00;99.90;;;19.68;84.79;100996.00;5056837;28;20307;-72
2023/08/12 05:26:49;;;;;;;12.10;8.70;;;20.00;99.90;;;19.65;85.91;101001.03;5056991;28;20206;-73
2023/08/12 05:29:22;;;;;;;13.57;9.67;;;19.90;99.90;;;19.61;85.99;101005.22;5056961;28;20268;-72
2023/08/12 05:31:54;;;;;;;11.77;8.73;;;19.90;99.90;;;19.62;86.50;101002.28;5056716;28;20194;-72
2023/08/12 05:34:26;;;;;;;13.93;9.23;;;19.90;99.90;;;19.60;85.86;100985.38;5057074;28;20276;-72
2023/08/12 05:36:58;;;;;;;9.70;8.63;;;19.90;99.90;;;19.60;85.92;100993.50;5056737;28;20305;-72
2023/08/12 05:39:28;;;;;;;10.90;9.37;;;19.90;99.90;;;19.59;87.05;100986.41;5056760;28;20195;-72
2023/08/12 05:42:00;;;;;;;11.20;9.43;;;19.90;99.90;;;19.62;87.66;100988.69;5056389;28;20297;-72
2023/08/12 05:44:32;;;;;;;11.60;10.20;;;19.90;99.90;;;19.64;88.41;100983.88;5055912;28;20719;-73
2023/08/12 05:47:04;;;;;;;13.33;9.57;;;19.90;99.90;;;19.63;87.65;100979.50;5055895;28;20676;-73
2023/08/12 05:49:36;;;;;;;12.20;10.30;;;19.90;99.90;;;19.63;87.95;100970.50;5056035;28;20237;-73
2023/08/12 05:52:09;;;;;;;14.40;10.00;;;19.90;99.90;;;19.69;88.80;100981.34;5055921;28;20218;-73
2023/08/12 05:54:42;;;;;;;16.23;10.20;;;20.00;99.90;;;19.70;88.78;100977.59;5055959;28;20202;-74
2023/08/12 05:57:13;;;;;;;14.07;9.53;;;20.00;99.90;;;19.71;88.38;100987.44;5055896;28;20309;-74
2023/08/12 05:59:47;;;;;;;14.23;11.50;;;20.00;99.90;;;19.68;89.11;100978.88;5055891;28;20269;-73
2023/08/12 06:02:19;;;;;;;16.67;11.50;;;20.00;99.90;;;19.73;89.37;100982.59;5054513;28;20218;-73
2023/08/12 06:04:51;;;;;;;14.83;11.37;;;20.00;99.90;;;19.76;88.75;100978.59;5055790;28;20242;-73
2023/08/12 06:07:23;;;;;;;14.50;10.23;;;20.10;99.90;;;19.76;88.91;100977.81;5055466;28;20637;-73
2023/08/12 06:09:54;;;;;;;11.93;10.50;;;20.00;99.90;;;19.78;87.77;100968.38;5055408;28;20604;-73
2023/08/12 06:12:26;;;;;;;11.87;10.20;;;20.10;99.90;;;19.81;87.93;100969.81;5055288;28;20747;-73
2023/08/12 06:15:01;;;;;;;12.97;9.90;;;20.10;99.90;;;19.82;88.11;100964.19;5055617;28;20221;-73
2023/08/12 06:17:33;;;;;;;14.73;10.37;;;20.10;99.90;;;19.79;88.76;100964.63;5055528;28;20252;-72
2023/08/12 06:20:05;;;;;;;13.07;10.70;;;20.10;99.90;;;19.77;89.20;100961.28;5055521;28;20286;-73
2023/08/12 06:22:37;;;;;;;12.87;10.67;;;20.00;99.90;;;19.78;89.57;100956.69;5055451;28;20230;-73
2023/08/12 06:25:10;;;;;;;15.53;10.63;;;20.00;99.90;;;19.79;89.73;100955.63;5055608;28;20286;-73
2023/08/12 06:27:42;;;;;;;15.00;11.40;;;20.00;99.90;;;19.81;89.06;100950.81;5055327;28;20229;-73
2023/08/12 06:30:15;;;;;;;14.67;11.33;;;20.10;99.90;;;19.84;89.31;100944.94;5055334;28;20277;-73
2023/08/12 06:32:47;;;;;;;15.10;12.30;;;20.10;99.90;;;19.81;90.15;100940.78;5055164;28;20279;-73
2023/08/12 06:35:19;;;;;;;17.37;13.60;;;20.10;99.90;;;19.81;90.57;100938.06;5055471;28;20190;-72
2023/08/12 06:37:51;;;;;;;16.47;13.70;;;20.10;99.90;;;19.79;90.75;100925.75;5054834;28;20640;-73
2023/08/12 06:40:23;;;;;;;16.97;14.40;;;20.10;99.90;;;19.82;91.15;100933.47;5054895;28;20226;-72
2023/08/12 06:42:54;;;;;;;17.97;14.40;;;20.10;99.90;;;19.81;91.45;100940.78;5054972;28;20283;-73
2023/08/12 06:45:27;;;;;;;18.87;13.67;;;20.10;99.90;;;19.84;90.93;100944.94;5055057;28;20323;-73
2023/08/12 06:48:01;;;;;;;16.63;14.30;;;20.10;99.90;;;19.85;91.16;100939.31;5054692;28;20218;-73
2023/08/12 06:50:34;;;;;;;15.67;12.60;;;20.20;99.90;;;19.91;90.85;100940.31;5054991;28;20222;-73
2023/08/12 06:53:05;;;;;;;19.33;14.30;;;20.20;99.90;;;19.92;90.62;100939.28;5054835;28;20258;-73
2023/08/12 06:55:44;;;;;;;16.97;14.00;;;20.20;99.90;;;19.90;90.16;100938.66;5054873;28;20193;-73
2023/08/12 06:58:15;;;;;;;16.40;13.87;;;20.20;99.90;;;19.95;90.48;100938.84;5054437;28;20688;-73
2023/08/12 07:00:48;;;;;;;16.47;14.47;;;20.30;99.90;;;19.90;90.12;100933.22;5054786;28;20241;-73
2023/08/12 07:03:21;;;;;;;18.43;14.40;;;20.20;99.90;;;19.96;90.78;100940.50;5054640;28;20262;-73
2023/08/12 07:05:53;;;;;;;16.57;14.40;;;20.20;99.90;;;19.97;90.58;100936.72;5054389;28;20637;-73
2023/08/12 07:08:25;;;;;;;22.63;14.57;;;20.30;99.90;;;20.02;90.97;100939.63;5054684;28;20676;-74
2023/08/12 07:10:58;;;;;;;15.50;12.77;;;20.30;99.90;;;20.03;90.22;100935.88;5054600;28;20273;-74
2023/08/12 07:13:30;;;;;;;17.43;13.83;;;20.40;99.90;;;20.07;89.92;100934.38;5054053;28;20234;-74
2023/08/12 07:16:04;;;;;;;20.20;12.47;;;20.40;99.90;;;20.12;89.76;100942.72;5054215;28;20713;-74
2023/08/12 07:18:36;;;;;;;15.33;11.90;;;20.40;99.90;;;20.16;88.67;100936.63;5054280;28;20297;-74
2023/08/12 07:21:07;;;;;;;20.63;14.40;;;20.50;99.90;;;20.15;89.36;100942.28;5054113;28;20282;-74
2023/08/12 07:23:39;;;;;;;18.10;12.87;;;20.50;99.90;;;20.19;89.79;100938.91;5054184;28;20726;-74
2023/08/12 07:26:19;;;;;;;17.93;14.47;;;20.50;99.90;;;20.25;89.36;100938.03;5054311;28;20198;-74
2023/08/12 07:28:51;;;;;;;15.40;12.40;;;20.60;99.90;;;20.31;89.17;100936.34;5054255;28;20183;-74
2023/08/12 07:31:24;;;;;;;17.10;14.00;;;20.70;99.90;;;20.39;89.33;100933.38;5054190;28;20293;-74
2023/08/12 07:33:56;;;;;;;17.63;12.33;;;20.80;99.90;;;20.43;87.65;100939.22;5053813;28;20723;-74
2023/08/12 07:36:28;;;;;;;17.47;13.80;;;20.80;99.90;;;20.52;88.36;100927.00;5053808;28;20186;-74
2023/08/12 07:39:00;;;;;;;13.40;10.90;;;20.90;99.90;;;20.57;87.50;100936.19;5053637;28;20624;-73
2023/08/12 07:41:32;;;;;;;18.20;13.10;;;21.00;99.90;;;20.60;87.50;100930.28;5053991;28;20733;-73
2023/08/12 07:44:03;;;;;;;15.63;11.80;;;21.00;99.90;;;20.63;86.94;100924.41;5053923;28;20327;-73
2023/08/12 07:46:37;;;;;;;13.63;11.03;;;21.10;99.90;;;20.66;86.75;100923.97;5053628;28;20222;-73
2023/08/12 07:49:08;;;;;;;15.90;10.53;;;21.10;99.90;;;20.68;87.37;100919.16;5053564;28;20216;-73
2023/08/12 07:51:40;;;;;;;15.77;11.80;;;21.10;99.90;;;20.71;87.19;100915.16;5053844;28;20230;-73
2023/08/12 07:54:15;;;;;;;13.80;10.40;;;21.10;99.90;;;20.72;86.67;100917.63;5053750;28;20256;-74
2023/08/12 07:56:47;;;;;;;14.00;11.80;;;21.10;99.90;;;20.74;87.03;100915.53;5053500;28;20281;-73
2023/08/12 07:59:19;;;;;;;19.63;11.93;;;21.10;99.90;;;20.77;86.30;100918.84;5053646;28;20297;-74
2023/08/12 08:01:52;;;;;;;16.30;11.63;;;21.10;99.90;;;20.78;86.80;100926.81;5053738;28;20273;-73
2023/08/12 08:04:24;;;;;;;17.37;11.60;;;21.10;99.90;;;20.79;87.00;100930.38;5053393;28;20230;-74
2023/08/12 08:06:56;;;;;;;14.77;9.90;;;21.10;99.90;;;20.78;85.72;100937.69;5053534;28;20727;-73
2023/08/12 08:09:28;;;;;;;10.73;8.67;;;21.10;99.90;;;20.81;85.99;100936.41;5053556;28;20191;-73
2023/08/12 08:12:00;;;;;;;12.53;9.87;;;21.10;99.90;;;20.81;86.20;100925.53;5053563;28;20190;-73
2023/08/12 08:14:32;;;;;;;13.23;9.63;;;21.10;99.90;;;20.81;85.92;100914.63;5053472;28;20247;-73
2023/08/12 08:17:05;;;;;;;12.00;9.37;;;21.10;99.90;;;20.81;85.96;100920.09;5053203;28;20229;-73
2023/08/12 08:19:37;;;;;;;14.00;10.10;;;21.20;99.90;;;20.83;84.99;100923.41;5053150;28;20182;-73
2023/08/12 08:22:09;;;;;;;15.70;10.13;;;21.20;99.90;;;20.84;85.22;100922.34;5053062;28;20196;-73
2023/08/12 08:24:41;;;;;;;13.70;10.93;;;21.10;99.90;;;20.84;86.30;100919.63;5052674;28;20221;-73
2023/08/12 08:27:14;;;;;;;12.07;10.13;;;21.20;99.90;;;20.84;86.24;100916.91;5053371;28;20212;-74
2023/08/12 08:29:46;;;;;;;10.73;8.60;;;21.20;99.90;;;20.85;86.03;100921.31;5053096;28;20680;-74
2023/08/12 08:32:19;;;;;;;13.10;8.00;;;21.10;99.90;;;20.84;84.17;100916.91;5053309;28;20193;-74
2023/08/12 08:34:51;;;;;;;11.47;9.00;;;21.30;99.90;;;20.82;83.23;100917.16;5053504;28;20225;-75
2023/08/12 08:37:23;;;;;;;9.83;8.03;;;21.20;99.90;;;20.81;83.01;100918.19;5053122;28;20584;-73
2023/08/12 08:39:54;;;;;;;12.20;7.40;;;21.10;99.90;;;20.82;83.50;100922.59;5053624;28;20601;-73
2023/08/12 08:42:29;;;;;;;8.37;6.70;;;21.20;99.90;;;20.80;83.09;100911.06;5053150;28;20194;-74
2023/08/12 08:45:08;;;;;;;8.17;6.13;;;21.10;99.90;;;20.81;82.94;100915.47;5053004;28;20633;-74
2023/08/12 08:47:43;;;;;;;8.73;6.60;;;21.10;99.90;;;20.81;83.27;100915.47;5052787;28;20308;-73
2023/08/12 08:50:16;;;;;;;8.10;6.10;;;21.10;99.90;;;20.82;83.33;100914.44;5053210;28;20186;-73
2023/08/12 08:52:48;;;;;;;6.83;5.80;;;21.10;99.90;;;20.82;84.14;100894.53;5052878;28;20314;-74
2023/08/12 08:55:23;;;;;;;12.37;6.00;;;21.10;99.90;;;20.83;83.34;100907.06;5053086;28;20221;-73
2023/08/12 08:57:56;;;;;;;7.80;5.70;;;21.10;99.90;;;20.86;83.69;100895.72;5053311;28;20210;-73
2023/08/12 09:00:36;;;;;;;8.33;6.20;;;21.20;99.90;;;20.88;82.62;100904.53;5052746;28;20719;-74
2023/08/12 09:03:12;;;;;;;10.20;5.67;;;21.20;99.90;;;20.90;82.54;100911.41;5052926;28;20229;-74
2023/08/12 09:05:46;;;;;;;7.67;6.10;;;21.20;99.90;;;20.93;83.21;100918.28;5053008;28;20190;-73
2023/08/12 09:08:19;;;;;;;9.93;6.63;;;21.20;99.90;;;20.93;83.50;100915.56;5052693;28;20287;-74
2023/08/12 09:10:51;;;;;;;7.03;6.30;;;21.20;99.90;;;20.95;82.67;100916.19;5052917;28;20214;-74
2023/08/12 09:13:23;;;;;;;7.73;6.00;;;21.20;99.90;;;20.95;82.06;100906.13;5052804;28;20264;-74
2023/08/12 09:15:55;;;;;;;8.27;5.83;;;21.20;99.90;;;20.96;82.61;100912.41;5052896;28;20285;-74
2023/08/12 09:18:30;;;;;;;7.20;5.57;;;21.30;99.90;;;20.95;82.19;100899.84;5052809;28;20221;-74
2023/08/12 09:21:02;;;;;;;7.53;5.43;;;21.20;99.90;;;20.95;82.30;100899.84;5052560;28;20727;-73
2023/08/12 09:23:37;;;;;;;7.13;5.30;;;21.20;99.90;;;20.96;82.68;100890.66;5052451;28;20230;-73
2023/08/12 09:26:20;;;;;;;6.07;5.33;;;21.20;99.90;;;20.96;81.36;100902.34;5052793;28;20186;-73
2023/08/12 09:28:52;;;;;;;6.07;5.17;;;21.20;99.90;;;20.99;81.49;100895.63;5053125;28;20265;-74
2023/08/12 09:31:32;;;;;;;8.00;5.33;;;21.30;99.90;;;21.03;81.41;100894.09;5052783;28;20187;-74
2023/08/12 09:34:09;;;;;;;5.53;4.90;;;21.30;99.90;;;21.09;81.34;100891.34;5052688;28;20248;-75
2023/08/12 09:36:42;;;;;;;7.00;5.20;;;21.40;99.90;;;21.17;81.76;100882.88;5053915;28;20191;-74
2023/08/12 09:39:15;;;;;;;6.10;4.97;;;21.50;99.90;;;21.27;80.78;100887.81;5056353;28;20264;-74
2023/08/12 09:41:47;;;;;;;7.70;5.33;;;21.60;99.90;;;21.34;80.62;100883.13;5056317;28;20298;-75
2023/08/12 09:44:19;;;;;;;7.87;5.20;;;21.70;99.90;;;21.43;80.22;100883.66;5056160;28;20321;-74
2023/08/12 09:46:56;;;;;;;6.23;5.27;;;21.80;99.90;;;21.51;80.97;100881.44;5055796;28;20309;-75
2023/08/12 09:49:30;;;;;;;8.73;5.73;;;21.90;99.90;;;21.54;80.06;100872.81;5056038;28;20224;-75
2023/08/12 09:52:02;;;;;;;9.17;5.87;;;21.90;99.90;;;21.58;80.01;100868.56;5056418;28;20281;-75
2023/08/12 09:54:37;;;;;;;5.10;4.60;;;21.90;99.90;;;21.63;80.44;100857.84;5055972;28;20269;-74
2023/08/12 09:57:12;;;;;;;8.27;5.47;;;22.00;99.90;;;21.74;78.33;100853.50;5056031;28;20281;-74
2023/08/12 09:59:49;;;;;;;5.63;5.07;;;22.10;99.90;;;21.80;77.75;100847.13;5055840;28;20299;-74
2023/08/12 10:02:24;;;;;;;6.47;5.83;;;22.20;99.90;;;21.87;77.24;100841.56;5055816;28;20281;-74
2023/08/12 10:05:00;;;;;;;6.87;5.47;;;22.30;99.90;;;21.90;78.29;100841.97;5055483;28;20648;-74
2023/08/12 10:07:32;;;;;;;5.83;5.33;;;22.30;99.90;;;21.96;78.35;100842.94;5055776;28;20653;-74
2023/08/12 10:10:05;;;;;;;8.87;4.93;;;22.30;99.90;;;22.02;78.05;100842.81;5055726;28;20240;-74
2023/08/12 10:12:38;;;;;;;8.93;6.17;;;22.40;99.90;;;22.07;77.71;100842.13;5055667;28;20634;-74
2023/08/12 10:15:12;;;;;;;7.20;5.80;;;22.50;99.90;;;22.13;76.31;100833.00;5055637;28;20277;-74
2023/08/12 10:17:46;;;;;;;8.83;6.10;;;22.60;99.90;;;22.14;74.20;100835.53;5055322;28;20190;-74
2023/08/12 10:20:28;;;;;;;8.43;5.50;;;22.50;99.90;;;22.18;74.39;100831.28;5055185;28;20646;-74
2023/08/12 10:23:03;;;;;;;7.83;5.83;;;22.60;99.90;;;22.18;75.94;100839.44;5055456;28;20261;-74
2023/08/12 10:25:38;;;;;;;9.07;5.00;;;22.50;99.90;;;22.19;77.05;100841.09;5055828;28;20186;-73
2023/08/12 10:28:10;;;;;;;16.33;14.57;;;22.60;99.90;;;22.22;75.79;100848.00;5055135;28;20667;-64
2023/08/12 10:30:42;;;;;;;12.17;9.40;;;22.60;99.90;;;22.21;76.71;100844.44;5055296;28;20621;-64
2023/08/12 10:33:18;;;;;;;50.47;13.07;;;22.60;99.90;;;22.23;76.24;100844.19;5055236;28;20257;-66
2023/08/12 10:35:56;;;;;;;22.47;8.17;;;22.60;99.90;;;22.28;76.60;100847.06;5055205;28;20204;-74